createdAt,value
2023-01-29T00:00:43.000Z,68.18
2023-01-29T00:01:43.000Z,68.34
2023-01-29T00:02:42.000Z,68.61
2023-01-29T00:03:42.000Z,68.82
2023-01-29T00:04:43.000Z,68.78
2023-01-29T00:05:43.000Z,68.67
2023-01-29T00:06:43.000Z,68.27
2023-01-29T00:07:42.000Z,68.55
2023-01-29T00:08:43.000Z,68.45
2023-01-29T00:09:43.000Z,68.57
2023-01-29T00:10:42.000Z,68.47
2023-01-29T00:11:43.000Z,68.71
2023-01-29T00:12:42.000Z,68.80
2023-01-29T00:13:42.000Z,68.58
2023-01-29T00:14:43.000Z,68.61
2023-01-29T00:15:52.000Z,68.65
2023-01-29T00:16:42.000Z,68.90
2023-01-29T00:17:43.000Z,68.59
2023-01-29T00:18:43.000Z,68.73
2023-01-29T00:19:42.000Z,68.83
2023-01-29T00:20:42.000Z,68.92
2023-01-29T00:21:43.000Z,69.09
2023-01-29T00:22:43.000Z,68.93
2023-01-29T00:23:43.000Z,69.03
2023-01-29T00:24:42.000Z,69.04
2023-01-29T00:25:43.000Z,69.04
2023-01-29T00:26:42.000Z,68.91
2023-01-29T00:27:43.000Z,68.76
2023-01-29T00:28:43.000Z,68.70
2023-01-29T00:29:57.000Z,68.68
2023-01-29T00:30:42.000Z,68.37
2023-01-29T00:31:43.000Z,68.57
2023-01-29T00:32:44.000Z,68.86
2023-01-29T00:33:43.000Z,68.63
2023-01-29T00:34:42.000Z,67.99
2023-01-29T00:35:42.000Z,68.05
2023-01-29T00:36:44.000Z,67.94
2023-01-29T00:37:43.000Z,68.24
2023-01-29T00:38:43.000Z,68.55
2023-01-29T00:39:42.000Z,68.52
2023-01-29T00:40:47.000Z,68.39
2023-01-29T00:41:48.000Z,68.39
2023-01-29T00:42:48.000Z,68.48
2023-01-29T00:43:47.000Z,68.44
2023-01-29T00:44:48.000Z,68.11
2023-01-29T00:45:42.000Z,68.34
2023-01-29T00:46:42.000Z,68.50
2023-01-29T00:47:42.000Z,68.54
2023-01-29T00:48:42.000Z,68.54
2023-01-29T00:49:42.000Z,68.40
2023-01-29T00:50:43.000Z,68.49
2023-01-29T00:51:43.000Z,68.28
2023-01-29T00:52:43.000Z,67.96
2023-01-29T00:53:43.000Z,68.12
2023-01-29T00:54:43.000Z,68.21
2023-01-29T00:55:43.000Z,68.43
2023-01-29T00:56:43.000Z,68.24
2023-01-29T00:57:43.000Z,68.04
2023-01-29T00:58:43.000Z,68.23
2023-01-29T00:59:43.000Z,68.52
2023-01-29T01:00:43.000Z,68.60
2023-01-29T01:01:48.000Z,68.35
2023-01-29T01:02:48.000Z,68.43
2023-01-29T01:03:43.000Z,68.61
2023-01-29T01:04:43.000Z,68.92
2023-01-29T01:05:43.000Z,68.50
2023-01-29T01:06:43.000Z,68.70
2023-01-29T01:07:50.000Z,68.77
2023-01-29T01:08:48.000Z,68.58
2023-01-29T01:09:48.000Z,68.81
2023-01-29T01:10:43.000Z,68.59
2023-01-29T01:11:42.000Z,68.83
2023-01-29T01:12:43.000Z,68.83
2023-01-29T01:13:43.000Z,68.48
2023-01-29T01:14:43.000Z,68.85
2023-01-29T01:15:43.000Z,68.75
2023-01-29T01:16:43.000Z,69.07
2023-01-29T01:17:43.000Z,68.67
2023-01-29T01:18:43.000Z,68.99
2023-01-29T01:19:43.000Z,69.01
2023-01-29T01:20:42.000Z,69.17
2023-01-29T01:21:45.000Z,69.05
2023-01-29T01:22:42.000Z,68.86
2023-01-29T01:23:42.000Z,68.76
2023-01-29T01:24:42.000Z,68.88
2023-01-29T01:25:43.000Z,68.91
2023-01-29T01:26:42.000Z,69.15
2023-01-29T01:27:43.000Z,68.92
2023-01-29T01:28:43.000Z,69.06
2023-01-29T01:29:42.000Z,69.06
2023-01-29T01:30:43.000Z,69.41
2023-01-29T01:31:44.000Z,68.86
2023-01-29T01:32:43.000Z,68.82
2023-01-29T01:33:42.000Z,69.22
2023-01-29T01:34:45.000Z,69.25
2023-01-29T01:35:42.000Z,69.21
2023-01-29T01:36:42.000Z,68.95
2023-01-29T01:37:42.000Z,69.10
2023-01-29T01:38:43.000Z,68.99
2023-01-29T01:39:47.000Z,69.17
2023-01-29T01:40:44.000Z,68.78
2023-01-29T01:41:42.000Z,68.74
2023-01-29T01:42:46.000Z,68.59
2023-01-29T01:43:53.000Z,68.19
2023-01-29T01:44:53.000Z,68.37
2023-01-29T01:45:45.000Z,68.76
2023-01-29T01:46:42.000Z,68.75
2023-01-29T01:47:47.000Z,68.73
2023-01-29T01:48:44.000Z,68.79
2023-01-29T01:49:43.000Z,68.83
2023-01-29T01:51:02.000Z,68.78
2023-01-29T01:51:47.000Z,68.55
2023-01-29T01:52:49.000Z,68.32
2023-01-29T01:53:51.000Z,68.55
2023-01-29T01:54:42.000Z,68.30
2023-01-29T01:55:48.000Z,68.08
2023-01-29T01:56:50.000Z,68.33
2023-01-29T01:57:46.000Z,68.51
2023-01-29T01:58:51.000Z,68.61
2023-01-29T01:59:50.000Z,68.40
2023-01-29T02:00:42.000Z,68.54
2023-01-29T02:01:46.000Z,68.23
2023-01-29T02:02:47.000Z,68.40
2023-01-29T02:03:54.000Z,68.32
2023-01-29T02:04:47.000Z,68.46
2023-01-29T02:05:48.000Z,68.52
2023-01-29T02:06:49.000Z,68.75
2023-01-29T02:07:48.000Z,68.62
2023-01-29T02:08:55.000Z,68.73
2023-01-29T02:09:50.000Z,68.77
2023-01-29T02:10:45.000Z,68.73
2023-01-29T02:11:42.000Z,68.59
2023-01-29T02:12:43.000Z,68.85
2023-01-29T02:13:42.000Z,69.30
2023-01-29T02:14:43.000Z,69.01
2023-01-29T02:15:45.000Z,68.87
2023-01-29T02:16:42.000Z,69.07
2023-01-29T02:17:46.000Z,68.77
2023-01-29T02:18:42.000Z,68.96
2023-01-29T02:20:05.000Z,68.78
2023-01-29T02:21:03.000Z,68.73
2023-01-29T02:22:00.000Z,68.83
2023-01-29T02:22:53.000Z,68.91
2023-01-29T02:23:53.000Z,69.02
2023-01-29T02:25:12.000Z,69.14
2023-01-29T02:25:56.000Z,68.94
2023-01-29T02:26:53.000Z,69.04
2023-01-29T02:28:03.000Z,69.08
2023-01-29T02:29:04.000Z,69.34
2023-01-29T02:30:04.000Z,69.20
2023-01-29T02:31:03.000Z,68.92
2023-01-29T02:32:04.000Z,68.91
2023-01-29T02:33:00.000Z,68.75
2023-01-29T02:34:03.000Z,68.67
2023-01-29T02:35:04.000Z,68.75
2023-01-29T02:35:57.000Z,69.02
2023-01-29T02:37:08.000Z,68.67
2023-01-29T02:37:59.000Z,68.52
2023-01-29T02:38:54.000Z,68.66
2023-01-29T02:39:58.000Z,68.74
2023-01-29T02:40:54.000Z,68.57
2023-01-29T02:42:02.000Z,68.42
2023-01-29T02:42:51.000Z,68.66
2023-01-29T02:44:02.000Z,68.49
2023-01-29T02:44:54.000Z,68.54
2023-01-29T02:46:02.000Z,68.50
2023-01-29T02:46:53.000Z,68.94
2023-01-29T02:47:51.000Z,68.99
2023-01-29T02:48:56.000Z,68.95
2023-01-29T02:49:54.000Z,69.05
2023-01-29T02:50:55.000Z,69.10
2023-01-29T02:51:49.000Z,68.82
2023-01-29T02:53:04.000Z,68.87
2023-01-29T02:53:57.000Z,68.64
2023-01-29T02:54:51.000Z,68.75
2023-01-29T02:55:53.000Z,68.67
2023-01-29T02:56:52.000Z,68.54
2023-01-29T02:57:46.000Z,68.48
2023-01-29T02:58:52.000Z,68.76
2023-01-29T02:59:50.000Z,68.59
2023-01-29T03:00:45.000Z,68.71
2023-01-29T03:01:51.000Z,68.32
2023-01-29T03:02:51.000Z,68.15
2023-01-29T03:03:48.000Z,68.24
2023-01-29T03:04:51.000Z,68.41
2023-01-29T03:06:00.000Z,68.54
2023-01-29T03:06:50.000Z,68.76
2023-01-29T03:07:51.000Z,68.43
2023-01-29T03:08:53.000Z,68.69
2023-01-29T03:09:49.000Z,68.69
2023-01-29T03:10:51.000Z,68.65
2023-01-29T03:11:52.000Z,68.58
2023-01-29T03:12:48.000Z,68.42
2023-01-29T03:14:03.000Z,68.58
2023-01-29T03:14:49.000Z,68.40
2023-01-29T03:15:49.000Z,68.19
2023-01-29T03:16:48.000Z,67.98
2023-01-29T03:17:50.000Z,68.14
2023-01-29T03:18:51.000Z,67.86
2023-01-29T03:19:45.000Z,68.10
2023-01-29T03:20:52.000Z,68.20
2023-01-29T03:21:59.000Z,68.34
2023-01-29T03:22:47.000Z,68.36
2023-01-29T03:23:48.000Z,68.52
2023-01-29T03:24:55.000Z,68.66
2023-01-29T03:25:51.000Z,68.76
2023-01-29T03:26:48.000Z,68.64
2023-01-29T03:27:56.000Z,68.40
2023-01-29T03:28:49.000Z,68.22
2023-01-29T03:29:50.000Z,68.19
2023-01-29T03:30:58.000Z,68.15
2023-01-29T03:31:50.000Z,68.26
2023-01-29T03:32:45.000Z,68.32
2023-01-29T03:33:50.000Z,68.40
2023-01-29T03:34:47.000Z,68.33
2023-01-29T03:35:57.000Z,68.63
2023-01-29T03:37:05.000Z,68.56
2023-01-29T03:37:46.000Z,68.22
2023-01-29T03:38:44.000Z,68.38
2023-01-29T03:39:43.000Z,68.35
2023-01-29T03:41:01.000Z,68.25
2023-01-29T03:41:56.000Z,68.28
2023-01-29T03:42:58.000Z,68.15
2023-01-29T03:43:56.000Z,67.94
2023-01-29T03:44:59.000Z,67.62
2023-01-29T03:46:02.000Z,67.84
2023-01-29T03:46:54.000Z,68.11
2023-01-29T03:48:03.000Z,68.23
2023-01-29T03:48:53.000Z,68.40
2023-01-29T03:49:53.000Z,68.52
2023-01-29T03:51:03.000Z,68.57
2023-01-29T03:51:54.000Z,68.49
2023-01-29T03:52:51.000Z,68.47
2023-01-29T03:53:50.000Z,68.55
2023-01-29T03:54:56.000Z,68.55
2023-01-29T03:55:57.000Z,68.61
2023-01-29T03:56:55.000Z,68.73
2023-01-29T03:57:54.000Z,68.84
2023-01-29T03:58:56.000Z,68.97
2023-01-29T03:59:52.000Z,68.93
2023-01-29T04:01:15.000Z,68.76
2023-01-29T04:01:52.000Z,68.71
2023-01-29T04:02:53.000Z,68.84
2023-01-29T04:03:51.000Z,69.12
2023-01-29T04:04:45.000Z,69.10
2023-01-29T04:05:50.000Z,68.92
2023-01-29T04:06:46.000Z,68.89
2023-01-29T04:07:43.000Z,69.12
2023-01-29T04:08:53.000Z,69.15
2023-01-29T04:09:50.000Z,69.28
2023-01-29T04:10:46.000Z,69.33
2023-01-29T04:11:47.000Z,69.59
2023-01-29T04:12:47.000Z,69.68
2023-01-29T04:13:44.000Z,69.59
2023-01-29T04:14:46.000Z,69.35
2023-01-29T04:15:48.000Z,69.25
2023-01-29T04:16:48.000Z,69.37
2023-01-29T04:17:53.000Z,69.49
2023-01-29T04:18:45.000Z,69.29
2023-01-29T04:19:43.000Z,69.25
2023-01-29T04:20:42.000Z,69.53
2023-01-29T04:21:44.000Z,69.90
2023-01-29T04:22:48.000Z,69.92
2023-01-29T04:23:42.000Z,70.23
2023-01-29T04:24:43.000Z,70.44
2023-01-29T04:25:46.000Z,70.70
2023-01-29T04:26:56.000Z,70.40
2023-01-29T04:27:56.000Z,70.48
2023-01-29T04:28:52.000Z,70.42
2023-01-29T04:30:02.000Z,70.33
2023-01-29T04:30:52.000Z,70.69
2023-01-29T04:31:58.000Z,70.66
2023-01-29T04:32:57.000Z,70.54
2023-01-29T04:33:53.000Z,70.25
2023-01-29T04:34:54.000Z,69.54
2023-01-29T04:35:53.000Z,69.46
2023-01-29T04:36:53.000Z,69.17
2023-01-29T04:37:53.000Z,68.51
2023-01-29T04:39:00.000Z,67.83
2023-01-29T04:39:53.000Z,67.77
2023-01-29T04:41:03.000Z,67.52
2023-01-29T04:41:53.000Z,67.59
2023-01-29T04:42:52.000Z,67.88
2023-01-29T04:44:00.000Z,67.99
2023-01-29T04:44:57.000Z,68.28
2023-01-29T04:45:53.000Z,68.39
2023-01-29T04:46:53.000Z,68.60
2023-01-29T04:48:03.000Z,68.77
2023-01-29T04:49:00.000Z,68.93
2023-01-29T04:50:06.000Z,69.04
2023-01-29T04:50:54.000Z,69.14
2023-01-29T04:51:50.000Z,69.54
2023-01-29T04:52:53.000Z,69.56
2023-01-29T04:53:50.000Z,69.57
2023-01-29T04:55:03.000Z,69.59
2023-01-29T04:55:49.000Z,69.58
2023-01-29T04:56:52.000Z,69.20
2023-01-29T04:57:56.000Z,69.17
2023-01-29T04:58:49.000Z,69.43
2023-01-29T04:59:51.000Z,69.63
2023-01-29T05:00:47.000Z,69.80
2023-01-29T05:01:44.000Z,70.01
2023-01-29T05:02:44.000Z,70.35
2023-01-29T05:03:48.000Z,70.55
2023-01-29T05:04:46.000Z,70.50
2023-01-29T05:05:47.000Z,70.59
2023-01-29T05:06:46.000Z,70.36
2023-01-29T05:07:44.000Z,70.32
2023-01-29T05:08:43.000Z,70.50
2023-01-29T05:09:45.000Z,70.57
2023-01-29T05:10:45.000Z,70.66
2023-01-29T05:11:45.000Z,70.55
2023-01-29T05:12:48.000Z,70.58
2023-01-29T05:13:43.000Z,70.71
2023-01-29T05:14:45.000Z,70.78
2023-01-29T05:15:49.000Z,70.79
2023-01-29T05:16:49.000Z,70.67
2023-01-29T05:17:43.000Z,70.66
2023-01-29T05:18:43.000Z,70.57
2023-01-29T05:19:44.000Z,70.67
2023-01-29T05:20:43.000Z,70.86
2023-01-29T05:21:48.000Z,70.93
2023-01-29T05:22:45.000Z,70.99
2023-01-29T05:24:02.000Z,71.00
2023-01-29T05:24:43.000Z,71.04
2023-01-29T05:25:43.000Z,70.99
2023-01-29T05:26:50.000Z,70.88
2023-01-29T05:27:49.000Z,70.98
2023-01-29T05:28:42.000Z,71.06
2023-01-29T05:29:45.000Z,71.16
2023-01-29T05:30:49.000Z,71.27
2023-01-29T05:31:43.000Z,71.25
2023-01-29T05:32:42.000Z,71.23
2023-01-29T05:33:42.000Z,71.17
2023-01-29T05:34:42.000Z,71.04
2023-01-29T05:35:42.000Z,70.99
2023-01-29T05:36:42.000Z,71.04
2023-01-29T05:37:43.000Z,71.33
2023-01-29T05:38:42.000Z,71.28
2023-01-29T05:39:42.000Z,71.17
2023-01-29T05:40:42.000Z,71.15
2023-01-29T05:41:42.000Z,70.94
2023-01-29T05:42:42.000Z,71.03
2023-01-29T05:43:42.000Z,71.11
2023-01-29T05:44:42.000Z,71.06
2023-01-29T05:45:50.000Z,71.45
2023-01-29T05:46:43.000Z,71.50
2023-01-29T05:47:43.000Z,71.69
2023-01-29T05:48:42.000Z,71.71
2023-01-29T05:49:42.000Z,71.74
2023-01-29T05:50:42.000Z,71.79
2023-01-29T05:51:42.000Z,71.92
2023-01-29T05:52:42.000Z,72.11
2023-01-29T05:53:42.000Z,72.11
2023-01-29T05:54:42.000Z,72.06
2023-01-29T05:55:44.000Z,71.95
2023-01-29T05:56:42.000Z,72.04
2023-01-29T05:57:42.000Z,72.05
2023-01-29T05:58:42.000Z,72.34
2023-01-29T05:59:42.000Z,72.48
2023-01-29T06:00:42.000Z,72.60
2023-01-29T06:01:42.000Z,72.87
2023-01-29T06:02:43.000Z,72.99
2023-01-29T06:03:43.000Z,73.09
2023-01-29T06:04:42.000Z,73.34
2023-01-29T06:05:43.000Z,73.34
2023-01-29T06:06:43.000Z,73.31
2023-01-29T06:07:44.000Z,73.21
2023-01-29T06:08:42.000Z,73.23
2023-01-29T06:09:42.000Z,73.36
2023-01-29T06:10:42.000Z,73.39
2023-01-29T06:11:42.000Z,73.44
2023-01-29T06:12:43.000Z,73.46
2023-01-29T06:13:44.000Z,73.42
2023-01-29T06:14:43.000Z,73.38
2023-01-29T06:15:43.000Z,73.41
2023-01-29T06:16:43.000Z,73.09
2023-01-29T06:17:42.000Z,73.33
2023-01-29T06:18:43.000Z,73.43
2023-01-29T06:19:43.000Z,73.76
2023-01-29T06:20:42.000Z,73.87
2023-01-29T06:21:43.000Z,73.82
2023-01-29T06:22:42.000Z,74.02
2023-01-29T06:23:43.000Z,74.09
2023-01-29T06:24:43.000Z,74.04
2023-01-29T06:25:42.000Z,74.07
2023-01-29T06:26:42.000Z,74.14
2023-01-29T06:27:42.000Z,74.30
2023-01-29T06:28:48.000Z,74.42
2023-01-29T06:29:42.000Z,73.99
2023-01-29T06:30:42.000Z,74.13
2023-01-29T06:31:42.000Z,73.99
2023-01-29T06:32:43.000Z,73.91
2023-01-29T06:33:43.000Z,73.79
2023-01-29T06:34:42.000Z,73.85
2023-01-29T06:35:42.000Z,73.83
2023-01-29T06:36:43.000Z,73.95
2023-01-29T06:37:42.000Z,74.28
2023-01-29T06:38:43.000Z,74.52
2023-01-29T06:39:43.000Z,74.21
2023-01-29T06:40:42.000Z,74.13
2023-01-29T06:41:44.000Z,74.43
2023-01-29T06:42:42.000Z,74.70
2023-01-29T06:43:43.000Z,75.21
2023-01-29T06:44:43.000Z,75.07
2023-01-29T06:45:52.000Z,75.02
2023-01-29T06:46:42.000Z,75.19
2023-01-29T06:47:43.000Z,75.15
2023-01-29T06:48:42.000Z,75.04
2023-01-29T06:49:43.000Z,74.68
2023-01-29T06:50:43.000Z,74.54
2023-01-29T06:51:42.000Z,74.36
2023-01-29T06:52:42.000Z,74.33
2023-01-29T06:53:43.000Z,74.46
2023-01-29T06:54:42.000Z,74.55
2023-01-29T06:55:49.000Z,74.33
2023-01-29T06:56:42.000Z,74.37
2023-01-29T06:57:42.000Z,74.04
2023-01-29T06:58:42.000Z,74.01
2023-01-29T06:59:42.000Z,73.67
2023-01-29T07:00:42.000Z,73.74
2023-01-29T07:01:42.000Z,73.67
2023-01-29T07:02:42.000Z,73.58
2023-01-29T07:03:42.000Z,73.57
2023-01-29T07:04:42.000Z,73.49
2023-01-29T07:05:48.000Z,73.49
2023-01-29T07:06:42.000Z,73.63
2023-01-29T07:07:42.000Z,73.48
2023-01-29T07:08:42.000Z,73.32
2023-01-29T07:09:42.000Z,73.19
2023-01-29T07:10:42.000Z,73.20
2023-01-29T07:11:42.000Z,73.08
2023-01-29T07:12:42.000Z,73.08
2023-01-29T07:13:42.000Z,73.09
2023-01-29T07:14:42.000Z,73.07
2023-01-29T07:15:42.000Z,73.13
2023-01-29T07:16:42.000Z,73.11
2023-01-29T07:17:42.000Z,72.93
2023-01-29T07:18:42.000Z,72.95
2023-01-29T07:19:42.000Z,72.87
2023-01-29T07:20:42.000Z,72.64
2023-01-29T07:21:42.000Z,72.75
2023-01-29T07:22:42.000Z,72.52
2023-01-29T07:23:42.000Z,72.69
2023-01-29T07:24:42.000Z,72.89
2023-01-29T07:25:42.000Z,72.93
2023-01-29T07:26:42.000Z,72.89
2023-01-29T07:27:43.000Z,72.84
2023-01-29T07:28:42.000Z,72.96
2023-01-29T07:29:42.000Z,72.89
2023-01-29T07:30:43.000Z,72.78
2023-01-29T07:31:42.000Z,72.73
2023-01-29T07:32:42.000Z,72.79
2023-01-29T07:33:43.000Z,72.83
2023-01-29T07:34:42.000Z,72.69
2023-01-29T07:35:42.000Z,72.82
2023-01-29T07:36:42.000Z,72.86
2023-01-29T07:37:43.000Z,72.68
2023-01-29T07:38:42.000Z,72.92
2023-01-29T07:39:43.000Z,72.79
2023-01-29T07:40:42.000Z,72.83
2023-01-29T07:41:42.000Z,72.86
2023-01-29T07:42:43.000Z,72.87
2023-01-29T07:43:42.000Z,72.92
2023-01-29T07:44:42.000Z,72.86
2023-01-29T07:45:43.000Z,72.82
2023-01-29T07:46:42.000Z,72.80
2023-01-29T07:47:42.000Z,72.78
2023-01-29T07:48:42.000Z,72.71
2023-01-29T07:49:42.000Z,72.70
2023-01-29T07:50:43.000Z,72.61
2023-01-29T07:51:42.000Z,72.61
2023-01-29T07:52:42.000Z,72.64
2023-01-29T07:53:44.000Z,72.66
2023-01-29T07:54:42.000Z,72.75
2023-01-29T07:55:43.000Z,72.82
2023-01-29T07:56:42.000Z,72.97
2023-01-29T07:57:43.000Z,73.00
2023-01-29T07:58:42.000Z,72.82
2023-01-29T07:59:42.000Z,72.76
2023-01-29T08:00:43.000Z,72.68
2023-01-29T08:01:42.000Z,72.69
2023-01-29T08:02:42.000Z,72.68
2023-01-29T08:03:42.000Z,72.67
2023-01-29T08:04:42.000Z,72.65
2023-01-29T08:05:43.000Z,72.89
2023-01-29T08:06:42.000Z,72.86
2023-01-29T08:07:42.000Z,73.27
2023-01-29T08:08:42.000Z,73.22
2023-01-29T08:09:42.000Z,73.35
2023-01-29T08:10:42.000Z,73.19
2023-01-29T08:11:42.000Z,73.07
2023-01-29T08:12:42.000Z,73.01
2023-01-29T08:13:42.000Z,72.98
2023-01-29T08:14:44.000Z,73.31
2023-01-29T08:15:44.000Z,73.35
2023-01-29T08:16:42.000Z,73.48
2023-01-29T08:17:42.000Z,73.53
2023-01-29T08:18:46.000Z,73.60
2023-01-29T08:19:42.000Z,73.63
2023-01-29T08:20:42.000Z,73.77
2023-01-29T08:21:42.000Z,73.80
2023-01-29T08:22:42.000Z,73.74
2023-01-29T08:23:42.000Z,73.58
2023-01-29T08:24:42.000Z,73.28
2023-01-29T08:25:42.000Z,73.49
2023-01-29T08:26:42.000Z,73.34
2023-01-29T08:27:42.000Z,73.32
2023-01-29T08:28:42.000Z,73.33
2023-01-29T08:29:43.000Z,73.50
2023-01-29T08:30:43.000Z,73.61
2023-01-29T08:31:42.000Z,73.44
2023-01-29T08:32:42.000Z,73.44
2023-01-29T08:33:42.000Z,73.45
2023-01-29T08:34:42.000Z,73.44
2023-01-29T08:35:47.000Z,73.50
2023-01-29T08:36:43.000Z,73.54
2023-01-29T08:37:42.000Z,73.52
2023-01-29T08:38:42.000Z,73.43
2023-01-29T08:39:43.000Z,73.44
2023-01-29T08:40:43.000Z,73.36
2023-01-29T08:41:43.000Z,73.28
2023-01-29T08:42:42.000Z,73.26
2023-01-29T08:43:42.000Z,73.25
2023-01-29T08:44:42.000Z,73.32
2023-01-29T08:45:43.000Z,73.26
2023-01-29T08:46:42.000Z,73.18
2023-01-29T08:47:47.000Z,73.17
2023-01-29T08:48:42.000Z,73.12
2023-01-29T08:49:42.000Z,73.06
2023-01-29T08:50:42.000Z,73.08
2023-01-29T08:51:42.000Z,73.03
2023-01-29T08:52:43.000Z,72.98
2023-01-29T08:53:43.000Z,72.54
2023-01-29T08:54:42.000Z,71.84
2023-01-29T08:55:44.000Z,71.50
2023-01-29T08:56:43.000Z,70.85
2023-01-29T08:57:43.000Z,70.48
2023-01-29T08:58:43.000Z,70.06
2023-01-29T08:59:42.000Z,69.96
2023-01-29T09:00:42.000Z,69.67
2023-01-29T09:01:42.000Z,70.75
2023-01-29T09:02:42.000Z,71.45
2023-01-29T09:03:43.000Z,71.61
2023-01-29T09:04:42.000Z,71.66
2023-01-29T09:05:42.000Z,71.86
2023-01-29T09:06:42.000Z,71.96
2023-01-29T09:07:42.000Z,72.34
2023-01-29T09:08:42.000Z,72.65
2023-01-29T09:09:42.000Z,72.86
2023-01-29T09:10:42.000Z,72.61
2023-01-29T09:11:43.000Z,72.32
2023-01-29T09:12:42.000Z,72.16
2023-01-29T09:13:42.000Z,72.25
2023-01-29T09:14:42.000Z,72.28
2023-01-29T09:15:42.000Z,72.29
2023-01-29T09:16:42.000Z,72.19
2023-01-29T09:17:42.000Z,72.08
2023-01-29T09:18:42.000Z,71.50
2023-01-29T09:19:42.000Z,70.92
2023-01-29T09:20:42.000Z,70.68
2023-01-29T09:21:42.000Z,70.63
2023-01-29T09:22:42.000Z,70.57
2023-01-29T09:23:42.000Z,70.53
2023-01-29T09:24:42.000Z,70.57
2023-01-29T09:25:42.000Z,70.77
2023-01-29T09:26:42.000Z,70.59
2023-01-29T09:27:42.000Z,70.44
2023-01-29T09:28:42.000Z,70.14
2023-01-29T09:29:42.000Z,69.88
2023-01-29T09:30:42.000Z,69.63
2023-01-29T09:31:42.000Z,69.05
2023-01-29T09:32:42.000Z,69.08
2023-01-29T09:33:42.000Z,69.10
2023-01-29T09:34:42.000Z,69.33
2023-01-29T09:35:42.000Z,69.45
2023-01-29T09:36:42.000Z,69.55
2023-01-29T09:37:45.000Z,68.78
2023-01-29T09:38:42.000Z,68.32
2023-01-29T09:39:42.000Z,68.28
2023-01-29T09:41:02.000Z,68.56
2023-01-29T09:41:52.000Z,68.62
2023-01-29T09:42:50.000Z,68.23
2023-01-29T09:43:49.000Z,67.77
2023-01-29T09:44:54.000Z,67.34
2023-01-29T09:45:52.000Z,67.70
2023-01-29T09:46:45.000Z,67.76
2023-01-29T09:47:43.000Z,67.41
2023-01-29T09:48:43.000Z,67.37
2023-01-29T09:49:47.000Z,67.33
2023-01-29T09:50:47.000Z,67.60
2023-01-29T09:51:48.000Z,67.65
2023-01-29T09:52:52.000Z,67.69
2023-01-29T09:53:51.000Z,67.35
2023-01-29T09:54:52.000Z,67.08
2023-01-29T09:55:48.000Z,66.51
2023-01-29T09:56:43.000Z,66.68
2023-01-29T09:57:53.000Z,66.99
2023-01-29T09:58:42.000Z,66.97
2023-01-29T09:59:42.000Z,66.60
2023-01-29T10:01:00.000Z,66.82
2023-01-29T10:01:52.000Z,67.17
2023-01-29T10:02:52.000Z,66.26
2023-01-29T10:04:07.000Z,66.05
2023-01-29T10:04:52.000Z,66.65
2023-01-29T10:05:52.000Z,67.20
2023-01-29T10:06:52.000Z,66.54
2023-01-29T10:07:52.000Z,66.21
2023-01-29T10:09:05.000Z,65.95
2023-01-29T10:10:05.000Z,65.94
2023-01-29T10:10:52.000Z,66.40
2023-01-29T10:11:55.000Z,66.40
2023-01-29T10:12:56.000Z,66.51
2023-01-29T10:13:50.000Z,65.94
2023-01-29T10:14:59.000Z,65.96
2023-01-29T10:16:17.000Z,65.98
2023-01-29T10:17:02.000Z,65.84
2023-01-29T10:18:12.000Z,66.37
2023-01-29T10:19:15.000Z,66.29
2023-01-29T10:19:52.000Z,66.70
2023-01-29T10:20:52.000Z,66.18
2023-01-29T10:21:56.000Z,66.24
2023-01-29T10:22:54.000Z,66.36
2023-01-29T10:23:52.000Z,66.07
2023-01-29T10:25:02.000Z,66.36
2023-01-29T10:25:44.000Z,66.08
2023-01-29T10:26:42.000Z,66.39
2023-01-29T10:27:47.000Z,65.75
2023-01-29T10:28:48.000Z,65.73
2023-01-29T10:29:43.000Z,65.59
2023-01-29T10:30:53.000Z,65.55
2023-01-29T10:31:47.000Z,65.84
2023-01-29T10:32:43.000Z,65.87
2023-01-29T10:33:48.000Z,65.42
2023-01-29T10:34:52.000Z,65.73
2023-01-29T10:35:46.000Z,65.95
2023-01-29T10:36:47.000Z,65.62
2023-01-29T10:37:42.000Z,65.61
2023-01-29T10:38:45.000Z,65.79
2023-01-29T10:39:42.000Z,65.85
2023-01-29T10:40:50.000Z,64.91
2023-01-29T10:42:02.000Z,64.94
2023-01-29T10:42:51.000Z,64.67
2023-01-29T10:43:54.000Z,64.81
2023-01-29T10:44:58.000Z,65.16
2023-01-29T10:46:08.000Z,64.87
2023-01-29T10:46:59.000Z,64.60
2023-01-29T10:47:53.000Z,65.13
2023-01-29T10:48:53.000Z,65.17
2023-01-29T10:49:52.000Z,65.19
2023-01-29T10:50:52.000Z,65.17
2023-01-29T10:51:54.000Z,65.20
2023-01-29T10:53:08.000Z,64.92
2023-01-29T10:54:01.000Z,64.74
2023-01-29T10:54:52.000Z,64.85
2023-01-29T10:55:52.000Z,64.79
2023-01-29T10:57:02.000Z,64.87
2023-01-29T10:57:56.000Z,64.93
2023-01-29T10:58:50.000Z,64.92
2023-01-29T11:00:01.000Z,64.45
2023-01-29T11:00:42.000Z,64.93
2023-01-29T11:01:42.000Z,64.99
2023-01-29T11:02:45.000Z,64.84
2023-01-29T11:03:42.000Z,64.95
2023-01-29T11:04:43.000Z,64.59
2023-01-29T11:05:53.000Z,64.95
2023-01-29T11:06:42.000Z,64.56
2023-01-29T11:07:42.000Z,64.68
2023-01-29T11:08:55.000Z,64.99
2023-01-29T11:09:59.000Z,64.98
2023-01-29T11:11:02.000Z,64.41
2023-01-29T11:11:51.000Z,64.60
2023-01-29T11:12:44.000Z,64.83
2023-01-29T11:13:55.000Z,65.43
2023-01-29T11:14:47.000Z,65.45
2023-01-29T11:15:42.000Z,65.62
2023-01-29T11:16:45.000Z,65.13
2023-01-29T11:17:52.000Z,65.03
2023-01-29T11:19:02.000Z,64.89
2023-01-29T11:19:45.000Z,64.48
2023-01-29T11:20:44.000Z,64.56
2023-01-29T11:21:54.000Z,64.20
2023-01-29T11:22:52.000Z,64.69
2023-01-29T11:23:42.000Z,64.74
2023-01-29T11:24:43.000Z,64.56
2023-01-29T11:25:51.000Z,64.64
2023-01-29T11:26:45.000Z,64.55
2023-01-29T11:27:49.000Z,64.27
2023-01-29T11:28:44.000Z,64.38
2023-01-29T11:29:45.000Z,63.93
2023-01-29T11:30:42.000Z,63.62
2023-01-29T11:31:42.000Z,64.51
2023-01-29T11:32:42.000Z,64.53
2023-01-29T11:33:43.000Z,64.47
2023-01-29T11:34:51.000Z,64.71
2023-01-29T11:35:42.000Z,63.68
2023-01-29T11:36:43.000Z,63.70
2023-01-29T11:37:43.000Z,64.17
2023-01-29T11:38:41.000Z,64.20
2023-01-29T11:39:42.000Z,63.29
2023-01-29T11:40:42.000Z,63.31
2023-01-29T11:41:52.000Z,63.28
2023-01-29T11:42:42.000Z,63.02
2023-01-29T11:43:41.000Z,63.73
2023-01-29T11:44:41.000Z,63.63
2023-01-29T11:45:42.000Z,62.28
2023-01-29T11:46:41.000Z,62.12
2023-01-29T11:47:56.000Z,62.98
2023-01-29T11:48:48.000Z,63.13
2023-01-29T11:49:48.000Z,63.04
2023-01-29T11:50:48.000Z,62.88
2023-01-29T11:51:41.000Z,62.79
2023-01-29T11:52:42.000Z,62.63
2023-01-29T11:53:44.000Z,62.90
2023-01-29T11:54:47.000Z,63.12
2023-01-29T11:55:44.000Z,62.55
2023-01-29T11:56:44.000Z,62.41
2023-01-29T11:57:46.000Z,62.42
2023-01-29T11:58:42.000Z,62.19
2023-01-29T11:59:48.000Z,62.02
2023-01-29T12:00:46.000Z,62.37
2023-01-29T12:01:42.000Z,62.49
2023-01-29T12:02:45.000Z,62.14
2023-01-29T12:03:51.000Z,62.11
2023-01-29T12:04:42.000Z,62.14
2023-01-29T12:05:56.000Z,62.28
2023-01-29T12:06:44.000Z,62.49
2023-01-29T12:07:45.000Z,62.13
2023-01-29T12:08:42.000Z,61.21
2023-01-29T12:09:49.000Z,60.82
2023-01-29T12:10:42.000Z,61.03
2023-01-29T12:11:42.000Z,61.35
2023-01-29T12:12:42.000Z,61.71
2023-01-29T12:13:42.000Z,61.12
2023-01-29T12:14:42.000Z,61.30
2023-01-29T12:15:42.000Z,61.44
2023-01-29T12:16:52.000Z,60.95
2023-01-29T12:17:50.000Z,61.41
2023-01-29T12:18:51.000Z,61.78
2023-01-29T12:19:52.000Z,62.04
2023-01-29T12:20:52.000Z,61.86
2023-01-29T12:21:52.000Z,61.32
2023-01-29T12:23:05.000Z,61.33
2023-01-29T12:23:53.000Z,61.70
2023-01-29T12:24:55.000Z,61.85
2023-01-29T12:25:57.000Z,62.04
2023-01-29T12:26:53.000Z,62.83
2023-01-29T12:27:54.000Z,62.94
2023-01-29T12:29:03.000Z,62.80
2023-01-29T12:29:55.000Z,63.38
2023-01-29T12:31:07.000Z,63.04
2023-01-29T12:32:05.000Z,62.98
2023-01-29T12:32:57.000Z,62.83
2023-01-29T12:33:52.000Z,62.53
2023-01-29T12:34:50.000Z,62.75
2023-01-29T12:36:02.000Z,62.48
2023-01-29T12:36:48.000Z,62.58
2023-01-29T12:37:52.000Z,62.09
2023-01-29T12:38:43.000Z,62.31
2023-01-29T12:39:42.000Z,62.06
2023-01-29T12:40:51.000Z,61.77
2023-01-29T12:41:50.000Z,61.92
2023-01-29T12:42:47.000Z,62.15
2023-01-29T12:43:47.000Z,62.28
2023-01-29T12:44:50.000Z,61.74
2023-01-29T12:45:44.000Z,60.56
2023-01-29T12:46:46.000Z,60.78
2023-01-29T12:47:46.000Z,60.98
2023-01-29T12:48:44.000Z,61.14
2023-01-29T12:49:47.000Z,61.00
2023-01-29T12:50:42.000Z,60.90
2023-01-29T12:51:54.000Z,60.81
2023-01-29T12:52:50.000Z,60.62